createdAt,value
2018-03-01T00:01:51.747Z,30.77
2018-03-01T00:04:19.952Z,33.38
2018-03-01T00:06:48.129Z,29.67
2018-03-01T00:09:16.370Z,30.55
2018-03-01T00:11:44.558Z,33.42
2018-03-01T00:14:12.742Z,28.98
2018-03-01T00:16:40.979Z,29.90
2018-03-01T00:19:09.179Z,28.58
2018-03-01T00:21:37.362Z,32.08
2018-03-01T00:24:06.362Z,29.85
2018-03-01T00:26:34.562Z,28.48
2018-03-01T00:29:03.518Z,32.63
2018-03-01T00:31:31.704Z,27.13
2018-03-01T00:33:59.879Z,29.12
2018-03-01T00:36:28.062Z,27.62
2018-03-01T00:38:56.299Z,29.80
2018-03-01T01:25:06.826Z,22.67
2018-03-01T01:27:36.070Z,26.48
2018-03-01T01:30:04.270Z,24.40
2018-03-01T01:32:32.472Z,24.75
2018-03-01T01:35:01.439Z,25.67
2018-03-01T01:37:29.634Z,28.95
2018-03-01T01:39:57.815Z,27.33
2018-03-01T01:42:26.807Z,25.83
2018-03-01T01:44:55.755Z,27.15
2018-03-01T01:47:23.949Z,30.08
2018-03-01T01:49:52.146Z,28.62
2018-03-01T01:52:20.332Z,27.52
2018-03-01T01:54:48.530Z,27.35
2018-03-01T01:57:16.719Z,27.15
2018-03-01T01:59:44.901Z,27.23
2018-03-01T02:02:13.095Z,25.80
2018-03-01T02:04:41.306Z,28.00
2018-03-01T02:07:10.263Z,28.73
2018-03-01T02:09:38.450Z,25.35
2018-03-01T02:12:06.667Z,26.30
2018-03-01T02:14:34.884Z,29.35
2018-03-01T02:17:03.078Z,26.20
2018-03-01T02:19:31.278Z,26.17
2018-03-01T02:22:00.236Z,28.60
2018-03-01T02:24:28.424Z,25.83
2018-03-01T02:26:56.612Z,26.55
2018-03-01T02:29:25.593Z,25.58
2018-03-01T02:31:53.785Z,27.58
2018-03-01T02:34:22.739Z,26.15
2018-03-01T02:36:50.926Z,26.02
2018-03-01T02:39:19.146Z,24.73
2018-03-01T02:41:48.111Z,23.38
2018-03-01T02:44:16.303Z,26.20
2018-03-01T02:46:45.258Z,22.90
2018-03-01T02:49:13.446Z,24.65
2018-03-01T02:51:41.648Z,26.80
2018-03-01T02:54:10.591Z,23.90
2018-03-01T02:56:39.596Z,23.50
2018-03-01T02:59:07.806Z,25.35
2018-03-01T03:01:36.752Z,25.98
2018-03-01T03:04:04.948Z,26.08
2018-03-01T03:06:33.130Z,26.02
2018-03-01T03:09:01.315Z,24.67
2018-03-01T03:11:30.299Z,27.35
2018-03-01T03:13:58.489Z,23.67
2018-03-01T03:16:27.452Z,25.45
2018-03-01T03:18:55.654Z,28.15
2018-03-01T03:21:24.623Z,27.75
2018-03-01T03:23:52.810Z,27.67
2018-03-01T03:26:21.027Z,27.67
2018-03-01T03:28:49.216Z,28.45
2018-03-01T03:31:17.410Z,26.30
2018-03-01T03:33:45.596Z,25.98
2018-03-01T03:36:13.784Z,30.12
2018-03-01T03:38:41.979Z,26.77
2018-03-01T03:41:10.953Z,26.80
2018-03-01T03:43:39.144Z,25.85
2018-03-01T03:46:07.369Z,25.77
2018-03-01T03:48:35.560Z,24.67
2018-03-01T03:51:03.755Z,26.67
2018-03-01T03:53:31.967Z,25.67
2018-03-01T03:56:00.162Z,27.95
2018-03-01T03:58:28.349Z,24.37
2018-03-01T04:00:56.530Z,25.05
2018-03-01T04:03:24.711Z,27.25
2018-03-01T04:05:52.930Z,30.90
2018-03-01T04:08:21.114Z,30.80
2018-03-01T04:10:49.306Z,29.05
2018-03-01T04:13:17.495Z,29.52
2018-03-01T04:15:45.683Z,25.88
2018-03-01T04:18:13.898Z,30.30
2018-03-01T04:20:42.855Z,25.77
2018-03-01T04:23:11.086Z,25.35
2018-03-01T04:25:39.274Z,24.25
2018-03-01T04:28:07.468Z,24.52
2018-03-01T04:30:35.664Z,23.55
2018-03-01T04:33:03.850Z,24.63
2018-03-01T04:35:32.039Z,24.50
2018-03-01T04:38:00.994Z,24.33
2018-03-01T04:40:29.202Z,24.63
2018-03-01T04:42:58.158Z,24.95
2018-03-01T04:45:26.361Z,22.67
2018-03-01T04:47:55.319Z,22.15
2018-03-01T04:50:23.514Z,24.45
2018-03-01T04:52:51.709Z,24.58
2018-03-01T04:55:20.660Z,24.10
2018-03-01T04:57:49.622Z,25.30
2018-03-01T05:00:17.831Z,25.75
2018-03-01T05:02:46.013Z,25.55
2018-03-01T05:05:14.217Z,23.50
2018-03-01T05:07:43.183Z,23.40
2018-03-01T05:10:11.388Z,24.40
2018-03-01T05:12:39.659Z,27.95
2018-03-01T05:15:08.617Z,29.30
2018-03-01T05:17:36.798Z,28.27
2018-03-01T05:20:05.002Z,28.80
2018-03-01T05:22:33.987Z,28.17
2018-03-01T05:25:02.166Z,29.45
2018-03-01T05:27:30.355Z,26.45
2018-03-01T05:29:59.320Z,27.95
2018-03-01T05:32:27.509Z,27.50
2018-03-01T05:34:55.754Z,24.87
2018-03-01T05:37:23.992Z,27.77
2018-03-01T05:39:52.193Z,27.55
2018-03-01T05:42:20.373Z,28.83
2018-03-01T05:44:48.563Z,29.45
2018-03-01T05:47:16.750Z,27.25
2018-03-01T05:49:44.944Z,29.05
2018-03-01T05:52:13.909Z,25.73
2018-03-01T05:54:42.110Z,27.52
2018-03-01T05:57:11.100Z,26.52
2018-03-01T05:59:39.398Z,25.95
2018-03-01T06:02:07.667Z,27.58
2018-03-01T06:04:36.656Z,30.55
2018-03-01T06:07:05.638Z,27.87
2018-03-01T06:09:33.859Z,28.58
2018-03-01T06:12:02.089Z,25.50
2018-03-01T06:14:30.278Z,25.92
2018-03-01T06:16:59.237Z,27.35
2018-03-01T06:19:27.450Z,26.87
2018-03-01T06:21:56.414Z,26.60
2018-03-01T06:24:24.598Z,29.77
2018-03-01T06:26:52.787Z,27.05
2018-03-01T06:29:21.744Z,27.45
2018-03-01T06:31:49.917Z,28.15
2018-03-01T06:34:18.103Z,29.98
2018-03-01T06:36:46.290Z,30.02
2018-03-01T06:39:14.486Z,28.98
2018-03-01T06:41:43.447Z,27.90
2018-03-01T06:44:12.413Z,31.50
2018-03-01T06:46:40.688Z,28.50
2018-03-01T06:49:08.932Z,28.27
2018-03-01T06:51:37.878Z,28.77
2018-03-01T06:54:06.061Z,31.42
2018-03-01T06:56:34.269Z,35.05
2018-03-01T06:59:03.251Z,33.50
2018-03-01T07:01:32.210Z,31.05
2018-03-01T07:04:00.434Z,33.58
2018-03-01T07:06:29.394Z,32.45
2018-03-01T07:08:57.596Z,29.70
2018-03-01T07:11:26.574Z,33.35
2018-03-01T07:13:54.803Z,31.45
2018-03-01T07:16:23.024Z,32.30
2018-03-01T07:18:51.237Z,32.22
2018-03-01T07:21:19.447Z,31.83
2018-03-01T07:23:47.664Z,31.33
2018-03-01T07:26:16.701Z,31.92
2018-03-01T07:28:44.903Z,31.75
2018-03-01T07:31:13.126Z,30.15
2018-03-01T07:33:41.302Z,32.20
2018-03-01T07:36:09.479Z,31.40
2018-03-01T07:38:37.701Z,33.50
2018-03-01T07:41:05.877Z,30.95
2018-03-01T07:43:34.066Z,28.30
2018-03-01T07:46:02.272Z,30.37
2018-03-01T07:48:30.446Z,28.55
2018-03-01T07:50:58.648Z,29.48
2018-03-01T07:53:26.868Z,32.13
2018-03-01T07:55:55.055Z,29.45
2018-03-01T07:58:23.993Z,32.22
2018-03-01T08:00:52.167Z,31.50
2018-03-01T08:03:20.338Z,31.58
2018-03-01T08:05:48.517Z,30.60
2018-03-01T08:08:16.696Z,30.05
2018-03-01T08:10:44.873Z,31.92
2018-03-01T08:13:13.058Z,31.42
2018-03-01T08:15:41.236Z,32.72
2018-03-01T08:18:09.402Z,31.40
2018-03-01T08:20:37.592Z,29.45
2018-03-01T08:23:05.791Z,31.30
2018-03-01T08:25:34.744Z,31.50
2018-03-01T08:28:02.926Z,31.33
2018-03-01T08:30:31.103Z,32.80
2018-03-01T08:33:00.174Z,32.80
2018-03-01T08:35:28.372Z,30.70
2018-03-01T08:37:56.557Z,32.35
2018-03-01T08:40:24.746Z,32.15
2018-03-01T08:42:52.982Z,31.62
2018-03-01T08:45:21.893Z,32.97
2018-03-01T08:47:50.086Z,34.47
2018-03-01T08:50:18.292Z,34.90
2018-03-01T08:52:46.486Z,33.25
2018-03-01T08:55:14.673Z,35.33
2018-03-01T08:57:42.864Z,31.90
2018-03-01T09:00:11.057Z,32.63
2018-03-01T09:02:39.248Z,33.78
2018-03-01T09:05:08.209Z,33.08
2018-03-01T09:07:36.383Z,33.40
2018-03-01T09:10:04.560Z,34.38
2018-03-01T09:12:32.781Z,34.30
2018-03-01T09:15:00.985Z,31.85
2018-03-01T09:17:29.175Z,37.47
2018-03-01T09:19:57.371Z,35.63
2018-03-01T09:22:25.556Z,38.58
2018-03-01T09:24:53.854Z,38.95
2018-03-01T09:27:22.033Z,38.75
2018-03-01T09:29:50.225Z,34.90
2018-03-01T09:32:18.407Z,35.45
2018-03-01T09:34:46.582Z,34.83
2018-03-01T09:37:14.758Z,36.92
2018-03-01T09:39:42.947Z,34.60
2018-03-01T09:42:11.119Z,35.05
2018-03-01T09:44:39.307Z,35.45
2018-03-01T09:47:07.503Z,34.55
2018-03-01T09:49:35.697Z,34.10
2018-03-01T09:52:04.663Z,34.83
2018-03-01T09:54:32.857Z,33.72
2018-03-01T09:57:01.824Z,35.67
2018-03-01T09:59:30.020Z,38.20
2018-03-01T10:01:58.974Z,38.33
2018-03-01T10:04:27.155Z,37.40
2018-03-01T10:06:55.340Z,39.05
2018-03-01T10:09:23.532Z,43.17
2018-03-01T10:11:52.504Z,44.28
2018-03-01T10:14:20.689Z,44.10
2018-03-01T10:16:49.022Z,48.75
2018-03-01T10:19:17.219Z,44.88
2018-03-01T10:21:45.420Z,46.13
2018-03-01T10:24:13.628Z,48.30
2018-03-01T10:26:41.818Z,46.30
2018-03-01T10:29:10.008Z,44.55
2018-03-01T10:31:38.208Z,47.10
2018-03-01T10:34:06.458Z,45.20
2018-03-01T10:36:34.646Z,47.95
2018-03-01T10:39:02.856Z,44.28
2018-03-01T10:41:31.049Z,44.70
2018-03-01T10:43:59.303Z,46.17
2018-03-01T10:46:27.470Z,44.08
2018-03-01T10:48:55.644Z,45.25
2018-03-01T10:51:23.893Z,45.35
2018-03-01T10:53:52.123Z,48.47
2018-03-01T10:56:20.302Z,45.15
2018-03-01T10:58:49.290Z,45.90
2018-03-01T11:01:19.016Z,46.28
2018-03-01T11:03:47.222Z,47.90
2018-03-01T11:06:15.474Z,45.85
2018-03-01T11:08:43.668Z,47.65
2018-03-01T11:11:11.874Z,45.08
2018-03-01T11:13:40.228Z,47.35
2018-03-01T11:16:08.409Z,48.10
2018-03-01T11:18:36.633Z,50.28
2018-03-01T11:21:05.621Z,49.85
2018-03-01T11:23:34.593Z,50.35
2018-03-01T11:26:02.790Z,49.75
2018-03-01T11:28:31.743Z,47.65
2018-03-01T11:30:59.922Z,49.13
2018-03-01T11:33:28.106Z,50.75
2018-03-01T11:35:56.326Z,48.78
2018-03-01T11:38:24.520Z,48.17
2018-03-01T11:40:52.754Z,50.75
2018-03-01T11:43:21.721Z,49.38
2018-03-01T11:45:49.896Z,51.17
2018-03-01T11:48:18.104Z,52.42
2018-03-01T11:50:46.316Z,52.30
2018-03-01T11:53:14.559Z,48.53
2018-03-01T11:55:42.744Z,47.63
2018-03-01T11:58:10.927Z,51.63
2018-03-01T12:00:39.101Z,47.87
2018-03-01T12:03:07.275Z,46.83
2018-03-01T12:05:35.464Z,51.63
2018-03-01T12:08:03.639Z,50.27
2018-03-01T12:10:31.835Z,49.00
2018-03-01T12:13:00.036Z,50.20
2018-03-01T12:15:28.244Z,51.60
2018-03-01T12:17:56.435Z,50.00
2018-03-01T12:20:24.602Z,51.97
2018-03-01T12:22:52.769Z,50.00
2018-03-01T12:25:20.944Z,49.17
2018-03-01T12:27:49.122Z,49.70
2018-03-01T12:30:17.307Z,43.67
2018-03-01T12:32:45.486Z,44.60
2018-03-01T12:35:13.697Z,45.37
2018-03-01T12:37:41.884Z,45.97
2018-03-01T12:40:10.843Z,42.93
2018-03-01T12:42:39.030Z,44.03
2018-03-01T12:45:07.238Z,42.67
2018-03-01T12:47:36.208Z,44.60
2018-03-01T12:50:04.428Z,50.30
2018-03-01T12:52:32.984Z,38.92
2018-03-01T12:55:01.953Z,42.22
2018-03-01T12:57:30.165Z,43.33
2018-03-01T12:59:58.377Z,44.17
2018-03-01T13:02:26.577Z,44.60
2018-03-01T13:04:54.776Z,42.65
2018-03-01T13:07:23.746Z,43.15
2018-03-01T13:09:51.968Z,40.03
2018-03-01T13:12:20.170Z,42.67
2018-03-01T13:14:48.367Z,41.42
2018-03-01T13:17:16.578Z,39.40
2018-03-01T13:19:45.536Z,43.93
2018-03-01T13:22:13.725Z,41.20
2018-03-01T13:24:41.918Z,41.37
2018-03-01T13:27:10.901Z,47.03
2018-03-01T13:29:39.134Z,46.47
2018-03-01T13:32:09.739Z,42.73
2018-03-01T13:34:37.922Z,45.07
2018-03-01T13:37:06.112Z,45.47
2018-03-01T13:39:34.323Z,45.30
2018-03-01T13:42:03.003Z,44.00
2018-03-01T13:44:31.199Z,45.30
2018-03-01T13:46:59.406Z,43.07
2018-03-01T13:49:27.582Z,41.73
2018-03-01T13:51:55.769Z,44.60
2018-03-01T13:54:23.972Z,46.57
2018-03-01T13:56:52.155Z,45.23
2018-03-01T13:59:20.368Z,46.78
2018-03-01T14:01:48.579Z,46.90
2018-03-01T14:04:17.541Z,43.78
2018-03-01T14:07:01.460Z,45.42
2018-03-01T14:09:30.465Z,47.28
2018-03-01T14:11:59.438Z,43.42
2018-03-01T14:14:33.121Z,45.03
2018-03-01T14:17:02.844Z,43.00
2018-03-01T14:19:41.781Z,43.42
2018-03-01T14:22:13.911Z,45.58
2018-03-01T14:24:42.190Z,44.88
2018-03-01T14:27:10.382Z,42.13
2018-03-01T14:29:38.955Z,47.05
2018-03-01T14:32:07.369Z,43.85
2018-03-01T14:34:35.549Z,41.65
2018-03-01T14:37:04.505Z,41.03
2018-03-01T14:39:32.692Z,41.40
2018-03-01T14:42:00.866Z,41.08
2018-03-01T14:44:29.079Z,43.00
2018-03-01T14:46:57.249Z,40.45
2018-03-01T14:49:26.206Z,39.47
2018-03-01T14:51:54.409Z,42.28
2018-03-01T14:54:22.587Z,40.55
2018-03-01T14:56:51.550Z,42.53
2018-03-01T14:59:19.727Z,41.65
2018-03-01T15:01:47.930Z,39.38
2018-03-01T15:04:16.873Z,42.22
2018-03-01T15:06:45.061Z,41.58
2018-03-01T15:09:13.249Z,41.70
2018-03-01T15:11:41.444Z,42.25
2018-03-01T15:14:10.399Z,41.28
2018-03-01T15:16:38.583Z,41.28
2018-03-01T15:19:06.776Z,40.20
2018-03-01T15:21:34.955Z,43.40
2018-03-01T15:24:03.157Z,43.53
2018-03-01T15:26:32.096Z,43.38
2018-03-01T15:29:01.075Z,43.00
2018-03-01T15:31:29.254Z,43.20
2018-03-01T15:33:57.436Z,41.22
2018-03-01T15:36:25.642Z,43.28
2018-03-01T15:38:53.841Z,41.30
2018-03-01T15:41:22.045Z,43.35
2018-03-01T15:43:50.239Z,44.15
2018-03-01T15:46:18.428Z,42.10
2018-03-01T15:48:46.629Z,46.25
2018-03-01T15:51:15.575Z,44.67
2018-03-01T15:53:43.767Z,42.55
2018-03-01T15:56:11.949Z,43.67
2018-03-01T15:58:41.676Z,44.40
2018-03-01T16:01:10.627Z,45.22
2018-03-01T16:03:38.814Z,42.80
2018-03-01T16:06:07.011Z,43.72
2018-03-01T16:08:35.205Z,44.50
2018-03-01T16:11:04.151Z,43.95
2018-03-01T16:13:32.352Z,46.22
2018-03-01T16:16:01.319Z,49.67
2018-03-01T16:18:29.504Z,45.85
2018-03-01T16:20:57.680Z,44.53
2018-03-01T16:23:25.850Z,46.42
2018-03-01T16:25:54.026Z,45.58
2018-03-01T16:28:22.325Z,49.10
2018-03-01T16:30:50.514Z,46.55
2018-03-01T16:33:19.456Z,45.35
2018-03-01T16:35:47.638Z,44.13
2018-03-01T16:38:16.615Z,45.97
2018-03-01T16:40:44.817Z,42.20
2018-03-01T16:43:13.030Z,48.53
2018-03-01T16:45:41.995Z,47.53
2018-03-01T16:48:10.182Z,47.72
2018-03-01T16:50:39.150Z,43.25
2018-03-01T16:53:07.355Z,45.85
2018-03-01T16:55:36.316Z,47.25
2018-03-01T16:58:04.568Z,48.55
2018-03-01T17:00:32.746Z,46.37
2018-03-01T17:03:00.928Z,48.47
2018-03-01T17:05:29.106Z,48.33
2018-03-01T17:07:57.278Z,49.70
2018-03-01T17:10:25.467Z,47.38
2018-03-01T17:12:53.686Z,50.05
2018-03-01T17:15:22.642Z,50.75
2018-03-01T17:17:50.867Z,49.30
2018-03-01T17:20:19.056Z,45.92
2018-03-01T17:22:47.255Z,47.33
2018-03-01T17:25:15.433Z,50.70
2018-03-01T17:27:43.603Z,48.90
2018-03-01T17:30:11.772Z,48.55
2018-03-01T17:32:39.950Z,48.85
2018-03-01T17:35:08.134Z,48.85
2018-03-01T17:37:36.314Z,51.00
2018-03-01T17:40:04.486Z,51.50
2018-03-01T17:42:32.668Z,48.65
2018-03-01T17:45:00.862Z,49.88
2018-03-01T17:47:29.814Z,47.78
2018-03-01T17:49:58.016Z,48.63
2018-03-01T17:52:26.202Z,51.22
2018-03-01T17:54:55.248Z,51.53
2018-03-01T17:57:23.442Z,51.10
2018-03-01T17:59:51.655Z,49.63
2018-03-01T18:02:20.642Z,44.25
2018-03-01T18:04:49.588Z,49.38
2018-03-01T18:07:17.807Z,52.20
2018-03-01T18:09:46.903Z,53.53
2018-03-01T18:12:15.884Z,53.47
2018-03-01T18:14:44.078Z,56.55
2018-03-01T18:17:13.026Z,57.15
2018-03-01T18:19:41.210Z,55.38
2018-03-01T18:22:09.393Z,56.30
2018-03-01T18:24:37.601Z,54.75
2018-03-01T18:27:06.553Z,55.03
2018-03-01T18:29:34.733Z,55.03
2018-03-01T18:32:02.916Z,58.15
2018-03-01T18:34:31.112Z,54.40
2018-03-01T18:37:00.063Z,60.97
2018-03-01T18:39:28.249Z,55.35
2018-03-01T18:41:56.448Z,54.20
2018-03-01T18:44:25.402Z,56.72
2018-03-01T18:46:53.590Z,55.90
2018-03-01T18:49:21.774Z,56.08
2018-03-01T18:51:50.008Z,57.95
2018-03-01T18:54:18.192Z,54.30
2018-03-01T18:56:46.396Z,56.88
2018-03-01T18:59:14.580Z,57.13
2018-03-01T19:01:42.772Z,55.20
2018-03-01T19:04:11.717Z,59.53
2018-03-01T19:06:39.895Z,59.17
2018-03-01T19:09:08.077Z,90.45
2018-03-01T19:11:36.268Z,61.03
2018-03-01T19:14:04.457Z,61.75
2018-03-01T19:16:33.448Z,60.72
2018-03-01T19:19:01.650Z,58.40
2018-03-01T19:21:29.865Z,58.08
2018-03-01T19:23:58.090Z,58.55
2018-03-01T19:26:26.291Z,59.38
2018-03-01T19:28:54.505Z,63.55
2018-03-01T19:31:22.684Z,62.15
2018-03-01T19:33:50.866Z,59.60
2018-03-01T19:36:19.063Z,64.10
2018-03-01T19:38:48.038Z,59.40
2018-03-01T19:41:16.226Z,59.20
2018-03-01T19:43:45.190Z,59.33
2018-03-01T19:46:13.392Z,63.70
2018-03-01T19:48:42.351Z,58.55
2018-03-01T19:51:10.560Z,59.70
2018-03-01T19:53:39.513Z,58.25
2018-03-01T19:56:07.698Z,58.20
2018-03-01T19:58:35.902Z,67.40
2018-03-01T20:01:04.861Z,59.22
2018-03-01T20:03:33.817Z,64.12
2018-03-01T20:06:01.995Z,59.22
2018-03-01T20:08:30.184Z,62.58
2018-03-01T20:10:58.406Z,63.42
2018-03-01T20:13:26.627Z,63.25
2018-03-01T20:15:54.851Z,63.50
2018-03-01T20:18:23.047Z,59.90
2018-03-01T20:20:52.010Z,60.50
2018-03-01T20:23:20.223Z,63.75
2018-03-01T20:25:49.223Z,62.47
2018-03-01T20:28:17.410Z,61.63
2018-03-01T20:30:45.601Z,64.10
2018-03-01T20:33:13.792Z,60.20
2018-03-01T20:35:42.929Z,61.08
2018-03-01T20:38:11.094Z,62.35
2018-03-01T20:40:40.067Z,63.00
2018-03-01T20:43:08.241Z,63.35
2018-03-01T20:45:36.427Z,60.15
2018-03-01T20:48:04.622Z,63.33
2018-03-01T20:50:33.576Z,63.10
2018-03-01T20:53:01.767Z,60.55
2018-03-01T20:55:29.956Z,64.37
2018-03-01T20:57:58.920Z,69.22
2018-03-01T21:00:27.091Z,61.25
2018-03-01T21:02:55.279Z,62.25
2018-03-01T21:05:23.477Z,71.32
2018-03-01T21:07:52.436Z,60.70
2018-03-01T21:10:20.639Z,63.63
2018-03-01T21:12:49.652Z,63.40
2018-03-01T21:15:18.615Z,66.85
2018-03-01T21:17:46.804Z,63.25
2018-03-01T21:20:15.847Z,63.03
2018-03-01T21:22:44.176Z,68.03
2018-03-01T21:25:13.130Z,62.10
2018-03-01T21:27:41.318Z,62.90
2018-03-01T21:30:09.530Z,62.25
2018-03-01T21:32:38.476Z,62.00
2018-03-01T21:35:06.727Z,65.80
2018-03-01T21:37:34.929Z,65.20
2018-03-01T21:40:03.106Z,62.92
2018-03-01T21:42:33.211Z,66.22
2018-03-01T21:45:01.420Z,60.53
2018-03-01T21:47:29.614Z,65.57
2018-03-01T21:49:58.667Z,66.10
2018-03-01T21:52:26.905Z,66.32
2018-03-01T21:54:55.149Z,70.05
2018-03-01T21:57:24.113Z,69.35
2018-03-01T21:59:52.315Z,70.75
2018-03-01T22:02:20.524Z,62.30
2018-03-01T22:04:48.698Z,67.80
2018-03-01T22:07:16.895Z,69.50
2018-03-01T22:09:45.080Z,62.30
2018-03-01T22:12:13.348Z,62.00
2018-03-01T22:14:41.535Z,59.55
2018-03-01T22:17:09.711Z,61.45
2018-03-01T22:19:37.889Z,61.83
2018-03-01T22:22:06.077Z,63.95
2018-03-01T22:24:34.267Z,64.40
2018-03-01T22:27:02.448Z,61.78
2018-03-01T22:29:31.390Z,63.10
2018-03-01T22:31:59.604Z,60.85
2018-03-01T22:34:27.814Z,63.80
2018-03-01T22:36:56.014Z,61.80
2018-03-01T22:39:24.207Z,63.60
2018-03-01T22:41:52.393Z,65.95
2018-03-01T22:44:20.588Z,64.85
2018-03-01T22:46:49.539Z,65.43
2018-03-01T22:49:17.708Z,64.45
2018-03-01T22:51:45.892Z,67.80
2018-03-01T22:54:14.070Z,62.15
2018-03-01T22:56:42.268Z,66.68
2018-03-01T22:59:10.520Z,66.50
2018-03-01T23:01:38.729Z,65.47
2018-03-01T23:04:06.953Z,61.92
2018-03-01T23:06:35.134Z,63.25
2018-03-01T23:09:03.337Z,63.92
2018-03-01T23:11:31.522Z,64.70
2018-03-01T23:14:00.497Z,66.15
2018-03-01T23:16:28.671Z,67.25
2018-03-01T23:18:56.909Z,66.20
2018-03-01T23:21:25.088Z,64.22
2018-03-01T23:23:53.278Z,63.40
2018-03-01T23:26:21.461Z,65.22
2018-03-01T23:28:49.663Z,59.03
2018-03-01T23:31:17.861Z,65.05
2018-03-01T23:33:46.822Z,65.20
2018-03-01T23:36:15.013Z,65.32
2018-03-01T23:38:43.222Z,62.42
2018-03-01T23:41:11.415Z,60.83
2018-03-01T23:43:39.602Z,63.53
2018-03-01T23:46:07.792Z,60.65
2018-03-01T23:48:35.968Z,60.90
2018-03-01T23:51:04.909Z,62.53
2018-03-01T23:53:33.143Z,64.87
2018-03-01T23:56:01.331Z,68.82
2018-03-01T23:58:30.295Z,64.12
